Time;durP1;ratioP1;P1;durP2;ratioP2;P2;SDS_P1;SDS_P2;PMS_P1;PMS_P2;Temp;Humidity;BMP_temperature;BMP_pressure;BME280_temperature;BME280_humidity;BME280_pressure;Samples;Min_cycle;Max_cycle;Signal;HPM_P1;HPM_P2
2024/03/30 00:00:00;;;;;;;12.40;8.00;;;;;;;11.81;100.00;98913.09;180982;1267;43157;-64
2024/03/30 00:04:04;;;;;;;15.70;6.80;;;;;;;11.79;100.00;98904.08;180974;1266;43156;-66
2024/03/30 00:08:37;;;;;;;13.10;6.80;;;;;;;11.72;100.00;98904.98;181010;1266;43675;-66
2024/03/30 00:12:40;;;;;;;20.00;7.60;;;;;;;11.61;100.00;98902.77;181014;1266;60072;-64
2024/03/30 00:16:43;;;;;;;15.30;7.40;;;;;;;11.56;100.00;98897.81;181024;1266;44542;-66
2024/03/30 00:20:47;;;;;;;16.40;8.50;;;;;;;11.56;100.00;98897.48;181095;1266;43112;-64
2024/03/30 00:24:50;;;;;;;11.60;7.80;;;;;;;11.56;100.00;98898.17;181000;1266;43170;-64
2024/03/30 00:28:53;;;;;;;17.30;8.60;;;;;;;11.47;100.00;98895.98;181050;1265;43372;-64
2024/03/30 00:33:24;;;;;;;16.40;8.80;;;;;;;11.51;100.00;98891.82;181095;1265;57931;-66
2024/03/30 00:37:27;;;;;;;13.30;7.60;;;;;;;11.55;100.00;98882.27;181049;1266;43866;-64
2024/03/30 00:41:30;;;;;;;14.10;7.70;;;;;;;11.42;100.00;98875.90;181019;1267;43172;-66
2024/03/30 00:45:38;;;;;;;13.00;7.90;;;;;;;11.29;100.00;98872.34;181010;1266;43147;-65
2024/03/30 00:49:40;;;;;;;9.10;7.50;;;;;;;11.23;100.00;98862.86;180941;1266;43328;-65
2024/03/30 00:53:53;;;;;;;21.40;8.80;;;;;;;11.25;100.00;98864.55;181023;1266;59564;-64
2024/03/30 00:57:57;;;;;;;17.30;8.60;;;;;;;11.33;100.00;98880.99;180955;1266;43125;-65
2024/03/30 01:02:03;;;;;;;14.60;8.50;;;;;;;11.41;100.00;98880.21;180910;1266;43268;-65
2024/03/30 01:06:06;;;;;;;12.60;7.50;;;;;;;11.50;100.00;98878.41;180893;1265;43086;-65
2024/03/30 01:10:12;;;;;;;20.00;8.60;;;;;;;11.50;100.00;98880.34;181045;1266;43575;-65
2024/03/30 01:14:17;;;;;;;14.60;7.20;;;;;;;11.52;100.00;98893.13;181034;1266;58126;-64
2024/03/30 01:18:21;;;;;;;10.50;5.90;;;;;;;11.48;100.00;98891.88;181009;1266;43692;-65
2024/03/30 01:22:24;;;;;;;11.50;7.10;;;;;;;11.50;100.00;98894.95;181062;1265;43775;-64
2024/03/30 01:26:47;;;;;;;18.00;8.20;;;;;;;11.49;100.00;98897.15;181059;1266;43932;-66
2024/03/30 01:30:50;;;;;;;16.30;9.50;;;;;;;11.43;100.00;98895.64;181075;1267;43747;-65
2024/03/30 01:34:54;;;;;;;9.30;7.40;;;;;;;11.31;100.00;98899.66;180912;1266;58051;-64
2024/03/30 01:39:51;;;;;;;12.60;7.20;;;;;;;11.17;100.00;98895.35;180956;1266;43060;-67
2024/03/30 01:43:54;;;;;;;;;;;;;;;11.11;100.00;98895.30;181046;1266;43169;-66
2024/03/30 01:48:11;;;;;;;12.10;8.40;;;;;;;11.04;100.00;98892.17;181050;1266;42814;-65
2024/03/30 01:52:15;;;;;;;17.30;7.00;;;;;;;10.87;100.00;98894.46;181001;1266;43696;-67
2024/03/30 01:56:20;;;;;;;13.30;8.50;;;;;;;10.73;100.00;98884.80;181074;1266;59359;-66
2024/03/30 02:00:25;;;;;;;13.80;8.20;;;;;;;10.53;100.00;98877.08;181026;1267;43342;-64
2024/03/30 02:04:29;;;;;;;15.40;9.50;;;;;;;10.49;100.00;98876.06;180973;1265;43749;-64
2024/03/30 02:08:38;;;;;;;19.70;9.30;;;;;;;10.40;100.00;98881.25;181040;1265;43122;-66
2024/03/30 02:12:41;;;;;;;14.10;7.20;;;;;;;10.31;100.00;98879.16;180965;1266;43020;-65
2024/03/30 02:17:39;;;;;;;14.30;8.40;;;;;;;10.29;100.00;98883.06;180948;1267;57223;-66
2024/03/30 02:21:42;;;;;;;10.80;7.60;;;;;;;10.23;100.00;98874.80;181048;1267;43635;-65
2024/03/30 02:31:06;;;;;;;11.20;6.00;;;;;;;10.38;100.00;98885.16;181005;1265;43095;-65
2024/03/30 02:35:11;;;;;;;13.40;8.60;;;;;;;10.47;100.00;98889.79;180998;1267;43678;-65
2024/03/30 02:39:13;;;;;;;9.80;6.50;;;;;;;10.57;100.00;98886.10;181104;1264;58194;-64
2024/03/30 02:43:16;;;;;;;19.70;6.40;;;;;;;10.56;100.00;98888.48;180978;1267;43621;-64
2024/03/30 02:47:19;;;;;;;13.00;6.80;;;;;;;10.57;100.00;98891.59;181000;1266;43655;-65
2024/03/30 02:51:22;;;;;;;14.10;8.50;;;;;;;10.61;100.00;98890.06;181025;1266;43180;-66
2024/03/30 02:55:26;;;;;;;13.50;6.50;;;;;;;10.62;100.00;98889.47;180981;1265;43702;-65
2024/03/30 02:59:55;;;;;;;8.90;7.70;;;;;;;10.54;100.00;98895.21;181008;1265;57936;-65
2024/03/30 03:03:58;;;;;;;16.10;7.20;;;;;;;10.46;100.00;98895.73;180972;1267;43748;-64
2024/03/30 03:08:17;;;;;;;13.80;6.50;;;;;;;10.41;100.00;98895.69;181021;1264;43735;-64
2024/03/30 03:12:20;;;;;;;17.10;10.20;;;;;;;10.42;100.00;98896.77;180897;1267;43244;-65
2024/03/30 03:16:36;;;;;;;13.10;7.10;;;;;;;10.41;100.00;98891.18;181098;1265;43017;-65
2024/03/30 03:20:39;;;;;;;16.70;8.20;;;;;;;10.39;100.00;98889.79;181003;1265;58453;-66
2024/03/30 03:24:43;;;;;;;12.80;7.10;;;;;;;10.48;100.00;98886.84;181021;1265;43684;-64
2024/03/30 03:28:45;;;;;;;14.80;7.40;;;;;;;10.45;100.00;98888.33;181022;1267;44129;-65
2024/03/30 03:32:55;;;;;;;10.80;6.70;;;;;;;10.47;100.00;98891.52;181024;1264;43786;-65
2024/03/30 03:36:58;;;;;;;12.90;6.20;;;;;;;10.46;100.00;98888.66;181035;1265;42991;-64
2024/03/30 03:41:01;;;;;;;22.20;5.50;;;;;;;10.51;100.00;98893.56;181001;1265;57933;-65
2024/03/30 03:45:06;;;;;;;10.20;5.00;;;;;;;10.62;100.00;98902.55;181089;1266;43155;-65
2024/03/30 03:49:09;;;;;;;8.80;5.00;;;;;;;10.75;100.00;98903.22;181076;1264;44153;-64
2024/03/30 03:54:11;;;;;;;10.70;5.10;;;;;;;10.81;100.00;98899.91;181060;1266;43744;-64
2024/03/30 03:58:14;;;;;;;10.60;4.50;;;;;;;10.99;100.00;98901.23;181017;1266;43766;-64
2024/03/30 04:02:17;;;;;;;7.30;4.90;;;;;;;11.13;100.00;98904.50;180983;1267;58445;-65
2024/03/30 04:06:19;;;;;;;10.40;4.90;;;;;;;11.28;100.00;98907.58;181002;1267;43268;-64
2024/03/30 04:10:23;;;;;;;6.00;3.20;;;;;;;11.43;100.00;98901.93;181073;1267;43755;-64
2024/03/30 04:14:27;;;;;;;11.10;3.00;;;;;;;11.56;100.00;98908.16;181025;1267;43834;-68
2024/03/30 04:18:30;;;;;;;7.80;3.70;;;;;;;11.65;100.00;98909.86;181026;1266;42993;-65
2024/03/30 04:22:33;;;;;;;8.70;3.40;;;;;;;11.71;100.00;98909.89;180952;1265;58412;-66
2024/03/30 04:26:43;;;;;;;5.30;2.10;;;;;;;11.77;100.00;98916.42;180939;1266;43085;-65
2024/03/30 04:30:54;;;;;;;7.00;2.60;;;;;;;11.83;100.00;98915.48;180922;1267;43891;-66
2024/03/30 04:34:57;;;;;;;9.60;2.50;;;;;;;11.90;100.00;98915.01;180973;1266;43345;-65
2024/03/30 04:39:00;;;;;;;12.70;3.10;;;;;;;11.96;100.00;98910.98;180887;1267;43722;-65
2024/03/30 04:43:19;;;;;;;8.20;3.20;;;;;;;12.02;100.00;98912.23;180994;1267;57559;-64
2024/03/30 04:47:22;;;;;;;5.40;2.80;;;;;;;12.14;100.00;98914.71;180999;1266;43399;-64
2024/03/30 04:51:25;;;;;;;10.60;3.30;;;;;;;12.24;100.00;98908.86;180936;1269;43104;-65
2024/03/30 04:56:18;;;;;;;4.00;1.30;;;;;;;12.35;100.00;98904.23;180998;1266;43155;-64
2024/03/30 05:00:21;;;;;;;3.80;1.90;;;;;;;12.46;100.00;98906.52;180998;1266;43051;-65
2024/03/30 05:04:24;;;;;;;9.00;2.40;;;;;;;12.51;100.00;98907.75;180990;1265;57560;-64
2024/03/30 05:08:27;;;;;;;5.50;2.90;;;;;;;12.63;100.00;98906.63;181092;1265;43692;-65
2024/03/30 05:12:29;;;;;;;8.50;2.70;;;;;;;12.75;100.00;98907.21;181129;1265;43449;-64
2024/03/30 05:16:32;;;;;;;8.20;3.10;;;;;;;12.91;100.00;98912.17;181098;1265;43233;-67
2024/03/30 05:20:49;;;;;;;4.20;2.80;;;;;;;13.06;100.00;98912.98;180985;1266;43716;-64
2024/03/30 05:24:52;;;;;;;11.60;3.00;;;;;;;13.19;100.00;98913.66;180933;1265;58347;-65
2024/03/30 05:28:54;;;;;;;8.10;3.80;;;;;;;13.31;100.00;98909.77;181037;1265;43816;-64
2024/03/30 05:32:58;;;;;;;14.20;4.10;;;;;;;13.49;100.00;98906.29;181079;1267;43116;-65
2024/03/30 05:37:03;;;;;;;14.00;3.30;;;;;;;13.62;100.00;98899.89;181098;1265;43154;-65
2024/03/30 05:41:11;;;;;;;17.90;4.40;;;;;;;13.68;100.00;98898.34;181055;1264;43335;-63
2024/03/30 05:45:13;;;;;;;10.80;3.20;;;;;;;13.69;100.00;98897.75;181080;1264;58463;-66
2024/03/30 05:49:16;;;;;;;8.90;2.90;;;;;;;13.71;100.00;98899.66;180980;1267;43111;-65
2024/03/30 05:53:50;;;;;;;11.70;3.60;;;;;;;13.82;100.00;98896.81;181063;1266;43536;-64
2024/03/30 06:14:49;;;;;;;13.80;4.80;;;;;;;15.52;88.25;98877.46;181609;1257;43872;-67
2024/03/30 06:18:54;;;;;;;16.40;3.70;;;;;;;15.70;87.50;98875.76;184368;1241;43825;-67
2024/03/30 06:22:56;;;;;;;19.00;5.70;;;;;;;15.86;86.63;98872.01;184401;1241;43459;-67
2024/03/30 06:26:58;;;;;;;26.60;6.30;;;;;;;16.06;85.40;98865.07;184423;1240;45988;-66
2024/03/30 06:31:02;;;;;;;23.70;5.10;;;;;;;16.22;84.84;98864.46;184410;1244;44512;-67
2024/03/30 06:35:07;;;;;;;18.80;6.00;;;;;;;16.41;83.81;98865.06;184494;1241;57386;-67
2024/03/30 06:39:11;;;;;;;17.40;5.80;;;;;;;16.56;83.34;98864.22;184359;1241;43749;-66
2024/03/30 06:47:33;;;;;;;23.80;5.90;;;;;;;16.95;83.53;98867.73;184896;1238;45976;-67
2024/03/30 06:51:35;;;;;;;21.60;7.30;;;;;;;17.17;82.56;98865.60;184646;1238;45041;-67
2024/03/30 06:55:37;;;;;;;22.00;6.40;;;;;;;17.46;81.33;98865.63;184708;1237;58420;-67
2024/03/30 06:59:39;;;;;;;17.80;5.90;;;;;;;17.76;80.22;98871.09;184780;1238;43873;-67
2024/03/30 07:03:43;;;;;;;30.20;8.30;;;;;;;17.96;78.22;98873.48;184810;1238;46065;-67
2024/03/30 07:07:45;;;;;;;24.70;6.80;;;;;;;18.17;78.94;98875.39;184880;1238;45893;-67
2024/03/30 07:11:47;;;;;;;21.00;5.80;;;;;;;18.34;79.28;98870.30;184695;1238;44031;-67
2024/03/30 07:15:49;;;;;;;31.40;7.90;;;;;;;18.46;78.12;98861.19;184687;1238;58404;-67
2024/03/30 07:19:51;;;;;;;34.80;7.70;;;;;;;18.53;76.90;98857.30;184910;1238;45335;-67
2024/03/30 07:23:53;;;;;;;28.60;8.80;;;;;;;18.67;75.36;98857.00;185047;1237;45925;-67
2024/03/30 07:27:55;;;;;;;38.40;9.80;;;;;;;18.81;73.40;98858.52;185132;1237;43759;-66
2024/03/30 07:31:58;;;;;;;41.50;11.30;;;;;;;18.89;72.36;98857.55;184976;1238;43533;-67
2024/03/30 07:36:00;;;;;;;28.30;8.00;;;;;;;18.94;71.53;98865.75;185121;1237;58140;-66
2024/03/30 07:40:03;;;;;;;30.70;9.50;;;;;;;19.03;72.11;98873.84;185030;1237;45898;-67
2024/03/30 07:44:05;;;;;;;34.70;8.10;;;;;;;19.16;71.98;98877.17;184966;1237;46008;-67
2024/03/30 07:48:07;;;;;;;28.90;8.80;;;;;;;19.49;76.01;98882.84;185150;1238;43534;-67
2024/03/30 07:52:11;;;;;;;46.40;10.80;;;;;;;19.85;76.60;98876.93;185099;1237;46478;-67
2024/03/30 07:56:13;;;;;;;33.00;9.60;;;;;;;20.14;71.92;98869.67;184914;1238;57360;-67
2024/03/30 08:00:40;;;;;;;41.00;10.40;;;;;;;20.31;69.77;98863.94;184889;1237;45903;-67
2024/03/30 08:04:42;;;;;;;38.30;10.00;;;;;;;20.37;69.21;98858.44;185142;1238;44502;-67
2024/03/30 08:08:44;;;;;;;45.60;11.80;;;;;;;20.50;68.49;98857.67;185032;1237;44358;-67
2024/03/30 08:12:46;;;;;;;66.50;12.50;;;;;;;20.66;68.00;98864.17;184982;1238;44139;-67
2024/03/30 08:16:48;;;;;;;56.70;13.70;;;;;;;20.82;67.47;98877.29;185082;1238;58447;-68
2024/03/30 08:20:50;;;;;;;55.00;13.20;;;;;;;20.96;68.13;98886.77;184946;1237;43607;-67
2024/03/30 08:25:05;;;;;;;39.90;11.70;;;;;;;21.02;67.99;98888.38;184757;1238;43772;-67
2024/03/30 08:29:07;;;;;;;42.50;13.00;;;;;;;20.82;68.09;98889.51;184842;1237;46022;-67
2024/03/30 08:33:09;;;;;;;61.00;15.80;;;;;;;20.85;69.41;98881.16;185112;1238;45883;-67
2024/03/30 08:37:13;;;;;;;36.80;12.00;;;;;;;20.87;67.00;98881.55;185073;1238;58692;-67
2024/03/30 08:41:16;;;;;;;49.30;13.20;;;;;;;20.89;66.92;98882.02;185081;1237;45921;-67
2024/03/30 08:45:18;;;;;;;40.40;13.30;;;;;;;21.02;67.83;98878.75;185012;1237;46017;-67
2024/03/30 08:49:20;;;;;;;50.20;14.20;;;;;;;21.04;63.13;98872.86;185729;1233;43570;-67
2024/03/30 08:53:21;;;;;;;56.50;15.30;;;;;;;21.13;62.70;98873.63;185809;1235;45986;-67
2024/03/30 08:57:25;;;;;;;58.10;15.50;;;;;;;21.31;61.74;98870.96;185750;1235;58266;-67
2024/03/30 09:01:32;;;;;;;63.10;14.60;;;;;;;21.43;63.98;98866.45;185851;1233;43478;-67
2024/03/30 09:05:34;;;;;;;71.30;14.40;;;;;;;21.44;61.88;98865.23;185521;1235;43494;-68
2024/03/30 09:09:37;;;;;;;73.20;19.10;;;;;;;21.40;60.32;98873.23;185429;1234;91067;-81
2024/03/30 09:13:40;;;;;;;55.00;17.10;;;;;;;21.53;60.86;98882.44;184023;1234;45947;-81
2024/03/30 09:17:41;;;;;;;57.30;16.20;;;;;;;21.72;59.94;98873.84;183712;1234;60264;-80
2024/03/30 09:21:44;;;;;;;78.40;19.10;;;;;;;21.89;59.46;98873.43;184219;1234;46165;-80
2024/03/30 09:25:46;;;;;;;64.50;17.90;;;;;;;21.90;57.68;98868.04;183801;1238;46126;-81
2024/03/30 09:29:48;;;;;;;83.50;19.20;;;;;;;21.77;55.79;98863.98;184135;1231;46057;-80
2024/03/30 09:33:50;;;;;;;74.50;19.20;;;;;;;21.80;56.77;98872.34;184274;1231;45900;-80
2024/03/30 09:37:52;;;;;;;89.00;20.50;;;;;;;21.72;54.66;98876.27;184308;1235;57781;-80
2024/03/30 09:41:55;;;;;;;61.20;18.20;;;;;;;21.72;54.47;98871.14;184352;1231;44644;-80
2024/03/30 09:45:58;;;;;;;65.70;16.30;;;;;;;21.71;56.23;98874.41;183996;1231;45959;-80
2024/03/30 09:50:04;;;;;;;69.30;17.70;;;;;;;21.80;56.66;98868.08;184059;1231;46000;-80
2024/03/30 09:54:07;;;;;;;58.70;18.20;;;;;;;21.92;54.88;98863.64;184101;1231;43997;-80
2024/03/30 09:58:11;;;;;;;72.00;21.30;;;;;;;21.98;54.43;98858.25;184203;1231;59376;-80
2024/03/30 10:02:13;;;;;;;89.50;19.60;;;;;;;22.00;53.06;98858.67;184194;1231;46013;-80
2024/03/30 10:06:22;;;;;;;72.80;19.10;;;;;;;21.95;53.06;98865.11;184341;1231;45898;-80
2024/03/30 10:10:26;;;;;;;78.70;22.70;;;;;;;21.87;53.11;98865.85;184043;1231;46091;-80
2024/03/30 10:14:37;;;;;;;74.40;22.60;;;;;;;21.84;53.43;98867.95;184408;1231;46056;-82
2024/03/30 10:18:38;;;;;;;75.40;21.00;;;;;;;21.89;53.72;98864.48;186623;1231;58113;-81
2024/03/30 10:22:41;;;;;;;89.10;20.30;;;;;;;21.88;52.88;98862.30;185123;1231;45973;-80
2024/03/30 10:26:43;;;;;;;67.30;18.90;;;;;;;21.95;52.47;98864.26;184779;1231;46113;-82
2024/03/30 10:30:45;;;;;;;78.20;20.10;;;;;;;21.93;52.08;98854.89;184083;1231;46005;-83
2024/03/30 10:34:47;;;;;;;69.60;20.80;;;;;;;21.96;53.02;98850.90;184499;1231;46119;-82
2024/03/30 10:38:49;;;;;;;71.10;19.00;;;;;;;22.09;52.20;98845.97;184220;1231;58035;-82
2024/03/30 10:42:55;;;;;;;70.00;20.50;;;;;;;22.29;52.97;98836.13;183999;1231;45972;-82
2024/03/30 10:46:56;;;;;;;;;;;;;;;22.59;52.57;98832.86;184309;1231;44787;-82
2024/03/30 10:50:58;;;;;;;75.20;19.50;;;;;;;22.80;52.63;98831.29;184359;1231;45882;-82
2024/03/30 10:55:00;;;;;;;72.90;19.80;;;;;;;23.00;53.00;98832.00;184288;1231;46062;-80
2024/03/30 10:59:04;;;;;;;68.70;22.30;;;;;;;23.24;53.21;98834.11;185249;1232;59257;-80
2024/03/30 11:03:08;;;;;;;55.70;19.00;;;;;;;23.32;53.60;98833.02;185189;1231;45897;-81
2024/03/30 11:07:13;;;;;;;81.10;24.00;;;;;;;23.29;54.66;98831.33;185149;1231;45989;-81
2024/03/30 11:11:16;;;;;;;77.30;23.30;;;;;;;23.31;54.22;98828.33;185217;1231;44680;-81
2024/03/30 11:15:21;;;;;;;96.70;23.50;;;;;;;23.37;52.95;98825.22;184856;1231;44576;-81
2024/03/30 11:19:34;;;;;;;99.20;25.00;;;;;;;23.40;53.41;98820.55;184972;1231;57797;-81
2024/03/30 11:23:49;;;;;;;78.90;22.60;;;;;;;23.48;53.84;98811.41;185122;1231;45973;-80
2024/03/30 11:27:59;;;;;;;79.00;21.10;;;;;;;23.42;52.20;98803.93;184900;1231;44639;-81
2024/03/30 11:32:12;;;;;;;73.10;19.30;;;;;;;23.51;53.21;98805.27;184755;1232;46126;-80
2024/03/30 11:36:29;;;;;;;98.30;22.30;;;;;;;23.58;54.81;98802.70;184559;1235;46651;-81
2024/03/30 11:40:33;;;;;;;64.50;21.20;;;;;;;23.71;53.54;98789.49;184637;1231;58188;-81
2024/03/30 11:44:37;;;;;;;88.10;22.90;;;;;;;23.89;53.91;98785.11;185000;1235;46040;-81
2024/03/30 11:48:41;;;;;;;78.90;24.00;;;;;;;23.96;56.75;98780.00;185369;1231;44015;-82
2024/03/30 11:52:47;;;;;;;80.10;21.50;;;;;;;23.99;58.73;98774.02;185198;1231;45967;-81
2024/03/30 11:57:01;;;;;;;67.00;20.90;;;;;;;24.03;56.41;98774.70;185356;1231;46090;-81
2024/03/30 12:01:18;;;;;;;76.80;18.80;;;;;;;23.93;55.19;98767.27;185943;1231;58134;-81
2024/03/30 12:05:23;;;;;;;85.60;20.80;;;;;;;23.89;57.35;98755.70;185406;1231;44658;-81
2024/03/30 12:09:28;;;;;;;82.00;20.40;;;;;;;23.95;54.57;98750.45;185339;1231;44985;-78
2024/03/30 12:13:40;;;;;;;70.50;17.80;;;;;;;24.06;51.66;98743.93;184708;1235;45899;-80
2024/03/30 12:17:42;;;;;;;71.60;22.70;;;;;;;24.16;50.69;98744.06;184649;1230;46615;-80
2024/03/30 12:21:45;;;;;;;79.30;19.70;;;;;;;24.22;51.04;98737.19;184517;1231;57721;-80
2024/03/30 12:25:51;;;;;;;63.70;18.40;;;;;;;24.18;51.73;98719.52;184570;1235;46195;-80
2024/03/30 12:29:55;;;;;;;61.10;19.80;;;;;;;24.27;51.98;98706.77;184164;1231;45225;-80
2024/03/30 12:33:57;;;;;;;100.70;20.80;;;;;;;24.25;49.36;98705.00;184627;1231;45841;-80
2024/03/30 12:38:03;;;;;;;71.30;20.20;;;;;;;24.21;50.87;98702.06;184501;1231;46123;-80
2024/03/30 12:42:05;;;;;;;82.90;22.90;;;;;;;24.21;49.74;98692.13;184816;1232;58133;-80
2024/03/30 12:46:07;;;;;;;60.70;19.20;;;;;;;24.21;50.12;98690.34;185145;1235;44707;-81
2024/03/30 12:50:09;;;;;;;93.20;21.50;;;;;;;24.18;49.13;98690.41;185211;1231;44502;-80
2024/03/30 12:54:12;;;;;;;90.20;18.70;;;;;;;24.14;49.93;98685.10;185156;1231;45917;-80
2024/03/30 12:58:14;;;;;;;69.10;20.10;;;;;;;24.09;47.05;98684.95;185400;1231;43999;-80
2024/03/30 13:02:16;;;;;;;58.90;17.80;;;;;;;24.05;47.22;98680.76;185338;1231;57779;-80
2024/03/30 13:06:19;;;;;;;67.70;22.70;;;;;;;24.06;47.08;98682.19;185308;1235;44809;-80
2024/03/30 13:10:21;;;;;;;59.70;16.20;;;;;;;24.11;47.89;98682.55;184433;1230;43661;-80
2024/03/30 13:14:24;;;;;;;69.80;18.10;;;;;;;24.15;46.28;98687.00;184966;1231;46073;-81
2024/03/30 13:18:25;;;;;;;67.60;19.90;;;;;;;24.36;47.61;98690.16;184518;1231;46580;-80
2024/03/30 13:22:27;;;;;;;77.40;23.10;;;;;;;24.50;47.95;98687.36;184649;1232;57630;-81
2024/03/30 13:26:30;;;;;;;52.40;18.50;;;;;;;24.66;48.08;98687.23;184374;1231;45903;-80
2024/03/30 13:30:32;;;;;;;77.30;24.60;;;;;;;24.79;50.24;98680.75;184688;1236;43781;-81
2024/03/30 13:34:34;;;;;;;63.40;17.40;;;;;;;24.84;49.75;98673.23;184763;1235;46228;-80
2024/03/30 13:38:35;;;;;;;76.40;21.00;;;;;;;24.86;49.91;98669.44;184739;1231;45964;-81
2024/03/30 13:42:37;;;;;;;68.10;23.50;;;;;;;24.85;49.58;98671.83;184451;1231;57156;-80
2024/03/30 13:46:39;;;;;;;63.50;24.30;;;;;;;24.66;51.37;98666.81;184878;1231;44614;-80
2024/03/30 13:50:41;;;;;;;87.30;24.10;;;;;;;24.55;50.82;98665.95;185069;1231;45915;-80
2024/03/30 13:54:43;;;;;;;75.10;29.30;;;;;;;24.54;52.31;98663.65;184730;1237;46116;-80
2024/03/30 13:58:44;;;;;;;108.80;28.30;;;;;;;24.65;51.80;98658.27;184826;1231;44135;-81
2024/03/30 14:02:48;;;;;;;78.10;27.90;;;;;;;24.73;52.29;98655.89;184694;1232;60073;-80
2024/03/30 14:06:49;;;;;;;62.80;19.20;;;;;;;24.54;51.33;98648.33;184735;1232;46079;-80
2024/03/30 14:10:51;;;;;;;62.60;16.00;;;;;;;24.34;52.56;98643.36;184714;1231;45928;-80
2024/03/30 14:14:53;;;;;;;44.90;14.20;;;;;;;24.06;54.25;98634.81;185309;1231;44854;-80
2024/03/30 14:18:54;;;;;;;70.20;17.50;;;;;;;23.80;55.75;98633.15;185333;1231;45883;-80
2024/03/30 14:22:56;;;;;;;56.10;17.20;;;;;;;23.60;55.84;98633.12;184356;1235;56897;-80
2024/03/30 14:27:00;;;;;;;48.10;16.10;;;;;;;23.37;57.63;98631.81;184368;1235;45905;-80
2024/03/30 14:31:02;;;;;;;39.80;14.20;;;;;;;23.12;58.61;98625.57;184128;1231;46034;-80
2024/03/30 14:35:04;;;;;;;41.90;15.50;;;;;;;22.98;58.54;98619.77;184761;1231;45990;-80
2024/03/30 14:39:06;;;;;;;57.80;14.40;;;;;;;22.82;61.23;98614.89;184594;1231;46005;-80
2024/03/30 14:43:08;;;;;;;46.60;13.70;;;;;;;22.56;61.93;98611.01;183987;1236;58097;-81
2024/03/30 14:47:09;;;;;;;120.50;62.30;;;;;;;22.52;62.82;98607.48;183703;1236;46104;-81
2024/03/30 14:51:11;;;;;;;68.70;17.00;;;;;;;22.51;64.86;98608.53;183562;1232;45991;-80
2024/03/30 14:55:13;;;;;;;48.30;15.90;;;;;;;22.47;64.90;98607.42;184079;1231;45970;-81
2024/03/30 14:59:15;;;;;;;42.30;13.30;;;;;;;22.47;60.49;98596.14;184167;1232;44515;-81
2024/03/30 15:03:19;;;;;;;50.90;14.40;;;;;;;22.53;59.30;98591.89;183959;1231;57523;-81
2024/03/30 15:07:23;;;;;;;60.80;20.20;;;;;;;22.66;60.95;98589.53;184158;1232;45969;-81
2024/03/30 15:11:25;;;;;;;43.20;12.80;;;;;;;22.79;61.89;98590.40;184296;1231;44205;-81
2024/03/30 15:15:27;;;;;;;45.90;11.50;;;;;;;23.01;60.93;98589.30;184051;1231;44744;-81
2024/03/30 15:19:28;;;;;;;44.30;12.80;;;;;;;23.29;57.83;98590.08;183968;1231;44721;-81
2024/03/30 15:23:30;;;;;;;34.70;9.70;;;;;;;23.38;56.44;98589.45;184447;1231;58128;-81
2024/03/30 15:27:34;;;;;;;55.20;14.80;;;;;;;23.29;56.99;98587.64;185034;1231;44725;-81
2024/03/30 15:36:01;;;;;;;27.40;10.20;;;;;;;23.41;60.07;98595.61;184949;1231;46014;-81
2024/03/30 15:40:03;;;;;;;45.60;14.10;;;;;;;23.51;60.19;98596.27;185001;1231;46075;-80
2024/03/30 15:44:05;;;;;;;42.50;12.50;;;;;;;23.56;59.94;98592.10;184306;1231;58119;-80
2024/03/30 15:48:06;;;;;;;39.20;14.00;;;;;;;23.54;60.09;98594.95;184416;1232;45882;-81
2024/03/30 15:52:09;;;;;;;53.40;13.70;;;;;;;23.44;63.32;98596.78;184488;1235;45975;-81
2024/03/30 15:56:12;;;;;;;55.70;23.30;;;;;;;23.32;61.73;98590.17;184791;1231;44114;-81
2024/03/30 16:00:15;;;;;;;49.20;20.00;;;;;;;23.07;59.84;98591.61;184801;1232;45993;-81
2024/03/30 16:04:16;;;;;;;65.30;28.70;;;;;;;22.90;61.65;98594.63;184838;1231;57984;-81
2024/03/30 16:08:19;;;;;;;41.00;21.90;;;;;;;22.80;64.31;98598.42;184754;1232;46060;-81
2024/03/30 16:12:21;;;;;;;46.80;16.90;;;;;;;22.71;63.95;98598.67;184890;1232;46146;-81
2024/03/30 16:16:23;;;;;;;56.70;18.10;;;;;;;22.63;65.00;98598.98;185092;1231;44459;-82
2024/03/30 16:20:24;;;;;;;70.10;27.70;;;;;;;22.58;65.60;98600.55;184348;1231;46092;-81
2024/03/30 16:24:26;;;;;;;59.40;25.40;;;;;;;22.47;68.40;98609.38;184636;1232;57918;-81
2024/03/30 16:28:29;;;;;;;45.10;12.50;;;;;;;22.32;65.89;98614.91;184796;1231;46161;-81
2024/03/30 16:32:30;;;;;;;39.40;10.30;;;;;;;22.17;62.35;98622.17;184704;1231;45998;-81
2024/03/30 16:36:32;;;;;;;38.30;10.40;;;;;;;21.90;54.48;98622.66;184264;1236;46001;-81
2024/03/30 16:40:34;;;;;;;22.20;8.40;;;;;;;21.55;52.62;98626.21;184151;1233;44533;-81
2024/03/30 16:44:35;;;;;;;27.40;8.30;;;;;;;21.14;50.74;98627.60;184120;1236;58209;-81
2024/03/30 16:48:37;;;;;;;31.00;9.00;;;;;;;20.83;50.96;98627.69;184452;1232;46091;-81
2024/03/30 16:52:40;;;;;;;38.10;9.80;;;;;;;20.51;51.62;98634.15;183372;1231;45972;-81
2024/03/30 16:56:42;;;;;;;37.40;10.40;;;;;;;20.19;51.96;98632.95;183335;1231;46081;-81
2024/03/30 17:00:43;;;;;;;25.90;11.30;;;;;;;19.90;52.36;98636.45;183336;1231;46040;-81
2024/03/30 17:04:46;;;;;;;53.00;11.40;;;;;;;19.66;52.81;98636.32;183042;1231;58356;-81
2024/03/30 17:08:48;;;;;;;43.70;12.50;;;;;;;19.45;53.21;98638.09;182827;1231;45810;-81
2024/03/30 17:12:50;;;;;;;35.70;10.30;;;;;;;19.28;53.82;98640.14;183074;1231;46123;-81
2024/03/30 17:16:52;;;;;;;44.30;11.80;;;;;;;19.24;54.63;98643.64;183144;1232;46171;-81
2024/03/30 17:21:03;;;;;;;45.80;10.30;;;;;;;19.24;54.95;98644.02;182959;1232;45995;-81
2024/03/30 17:25:05;;;;;;;42.90;12.70;;;;;;;19.23;55.23;98646.77;183061;1231;59391;-80
2024/03/30 17:29:08;;;;;;;33.80;11.40;;;;;;;19.17;55.60;98657.53;185623;1232;43322;-80
2024/03/30 17:33:09;;;;;;;26.60;11.10;;;;;;;19.06;55.42;98660.67;182745;1232;45913;-81
2024/03/30 17:37:13;;;;;;;31.80;12.30;;;;;;;18.97;54.86;98667.80;182669;1235;46012;-81
2024/03/30 17:41:15;;;;;;;39.40;11.60;;;;;;;18.94;54.84;98675.28;182919;1235;46062;-81
2024/03/30 17:45:17;;;;;;;37.20;11.00;;;;;;;18.91;54.78;98676.30;182093;1235;58825;-81
2024/03/30 17:49:20;;;;;;;35.20;10.40;;;;;;;18.85;54.93;98680.21;182596;1236;45976;-81
2024/03/30 17:53:22;;;;;;;64.30;15.00;;;;;;;18.74;55.30;98680.83;182762;1236;46178;-80
2024/03/30 17:57:24;;;;;;;33.70;14.40;;;;;;;18.59;56.47;98681.67;183126;1232;45857;-81
2024/03/30 18:01:25;;;;;;;48.80;15.80;;;;;;;18.36;59.41;98690.97;182717;1237;44413;-81
2024/03/30 18:05:28;;;;;;;36.30;11.70;;;;;;;18.09;60.62;98700.51;182915;1232;59898;-81
2024/03/30 18:09:30;;;;;;;39.00;13.40;;;;;;;17.84;61.56;98705.75;182551;1234;46158;-81
2024/03/30 18:13:32;;;;;;;47.20;17.20;;;;;;;17.67;62.35;98713.20;181657;1232;187041;-81
2024/03/30 18:17:35;;;;;;;117.20;58.90;;;;;;;17.50;62.85;98708.20;181722;1236;45976;-81
2024/03/30 18:21:36;;;;;;;59.20;16.20;;;;;;;17.39;63.01;98706.20;182995;1231;46086;-81
2024/03/30 18:25:39;;;;;;;48.50;12.70;;;;;;;17.30;64.02;98703.69;182505;1235;57674;-81
2024/03/30 18:29:43;;;;;;;41.80;12.00;;;;;;;17.23;63.86;98702.62;182993;1237;46126;-81
2024/03/30 18:33:48;;;;;;;37.10;12.50;;;;;;;17.17;64.42;98695.30;183033;1231;46085;-81
2024/03/30 18:37:49;;;;;;;43.50;12.40;;;;;;;17.04;66.60;98693.45;183569;1236;46094;-81
2024/03/30 18:41:51;;;;;;;31.90;10.50;;;;;;;16.89;68.92;98694.95;183071;1231;45927;-81
2024/03/30 18:46:05;;;;;;;52.40;11.90;;;;;;;16.70;69.59;98695.80;182865;1235;59200;-81
2024/03/30 18:50:08;;;;;;;45.00;14.00;;;;;;;16.44;71.93;98693.82;182745;1232;46066;-81
2024/03/30 18:54:10;;;;;;;50.70;13.50;;;;;;;16.13;74.36;98686.77;183393;1232;44181;-81
2024/03/30 18:58:12;;;;;;;42.30;13.20;;;;;;;15.82;76.76;98680.42;183104;1235;45947;-81
2024/03/30 19:02:13;;;;;;;51.60;14.60;;;;;;;15.72;75.47;98680.88;183040;1232;46049;-81
2024/03/30 19:06:15;;;;;;;59.20;15.90;;;;;;;15.88;75.22;98679.80;181827;1236;58105;-81